sensor_id;sensor_type;location;lat;lon;timestamp;temperature;humidity
18266;DHT22;9259;48.194;16.322;2023-06-19T00:00:32;19.30;99.90
18266;DHT22;9259;48.194;16.322;2023-06-19T00:02:59;19.30;99.90
18266;DHT22;9259;48.194;16.322;2023-06-19T00:05:27;19.30;99.90
18266;DHT22;9259;48.194;16.322;2023-06-19T00:07:54;19.20;99.90
18266;DHT22;9259;48.194;16.322;2023-06-19T00:10:23;19.20;99.90
18266;DHT22;9259;48.194;16.322;2023-06-19T00:12:51;19.10;99.90
18266;DHT22;9259;48.194;16.322;2023-06-19T00:15:18;19.00;99.90
18266;DHT22;9259;48.194;16.322;2023-06-19T00:17:46;19.00;99.90
18266;DHT22;9259;48.194;16.322;2023-06-19T00:20:13;18.90;99.90
18266;DHT22;9259;48.194;16.322;2023-06-19T00:22:41;18.90;99.90
18266;DHT22;9259;48.194;16.322;2023-06-19T00:25:09;18.90;99.90
18266;DHT22;9259;48.194;16.322;2023-06-19T00:27:38;18.80;99.90
18266;DHT22;9259;48.194;16.322;2023-06-19T00:47:37;18.80;99.90
18266;DHT22;9259;48.194;16.322;2023-06-19T13:08:15;18.50;99.90
18266;DHT22;9259;48.194;16.322;2023-06-19T13:10:42;35.30;62.00
18266;DHT22;9259;48.194;16.322;2023-06-19T13:13:10;35.20;60.80
18266;DHT22;9259;48.194;16.322;2023-06-19T13:15:37;35.60;62.70
18266;DHT22;9259;48.194;16.322;2023-06-19T13:18:06;35.80;59.10
18266;DHT22;9259;48.194;16.322;2023-06-19T13:20:35;35.60;58.70
18266;DHT22;9259;48.194;16.322;2023-06-19T13:23:02;35.50;59.10
18266;DHT22;9259;48.194;16.322;2023-06-19T13:25:30;35.20;59.20
18266;DHT22;9259;48.194;16.322;2023-06-19T13:27:58;35.40;59.40
18266;DHT22;9259;48.194;16.322;2023-06-19T13:30:26;35.60;58.80
18266;DHT22;9259;48.194;16.322;2023-06-19T13:32:53;36.50;58.00
18266;DHT22;9259;48.194;16.322;2023-06-19T13:35:22;36.50;57.80
18266;DHT22;9259;48.194;16.322;2023-06-19T13:37:49;36.40;57.40
18266;DHT22;9259;48.194;16.322;2023-06-19T13:40:17;36.60;57.40
18266;DHT22;9259;48.194;16.322;2023-06-19T13:42:44;36.00;57.30
18266;DHT22;9259;48.194;16.322;2023-06-19T13:45:12;35.50;60.30
18266;DHT22;9259;48.194;16.322;2023-06-19T13:47:39;35.20;58.60
18266;DHT22;9259;48.194;16.322;2023-06-19T13:50:07;36.50;57.20
18266;DHT22;9259;48.194;16.322;2023-06-19T13:52:36;36.70;56.30
18266;DHT22;9259;48.194;16.322;2023-06-19T13:55:04;36.70;56.50
18266;DHT22;9259;48.194;16.322;2023-06-19T13:57:32;37.00;55.80
18266;DHT22;9259;48.194;16.322;2023-06-19T13:59:59;36.60;57.90
18266;DHT22;9259;48.194;16.322;2023-06-19T14:02:27;35.30;58.20
18266;DHT22;9259;48.194;16.322;2023-06-19T14:04:54;34.40;57.70
18266;DHT22;9259;48.194;16.322;2023-06-19T14:07:23;34.30;59.20
18266;DHT22;9259;48.194;16.322;2023-06-19T14:09:52;35.10;59.90
18266;DHT22;9259;48.194;16.322;2023-06-19T14:12:20;35.40;57.00
18266;DHT22;9259;48.194;16.322;2023-06-19T14:14:48;35.40;57.50
18266;DHT22;9259;48.194;16.322;2023-06-19T14:19:43;35.20;58.00
